sensor_id;sensor_type;location;lat;lon;timestamp;P1;durP1;ratioP1;P2;durP2;ratioP2
73023;SDS011;61199;47.526;8.538;2023-04-03T00:01:22;8.87;;;6.00;;
73023;SDS011;61199;47.526;8.538;2023-04-03T00:03:48;8.97;;;6.50;;
73023;SDS011;61199;47.526;8.538;2023-04-03T00:06:15;8.80;;;6.17;;
73023;SDS011;61199;47.526;8.538;2023-04-03T00:08:41;9.40;;;6.47;;
73023;SDS011;61199;47.526;8.538;2023-04-03T00:11:08;11.07;;;6.47;;
73023;SDS011;61199;47.526;8.538;2023-04-03T00:13:35;8.83;;;6.13;;
73023;SDS011;61199;47.526;8.538;2023-04-03T00:16:02;8.87;;;6.03;;
73023;SDS011;61199;47.526;8.538;2023-04-03T00:18:29;9.10;;;6.40;;
73023;SDS011;61199;47.526;8.538;2023-04-03T00:20:55;9.70;;;5.70;;
73023;SDS011;61199;47.526;8.538;2023-04-03T00:23:22;9.93;;;6.70;;
73023;SDS011;61199;47.526;8.538;2023-04-03T00:25:50;7.80;;;5.73;;
73023;SDS011;61199;47.526;8.538;2023-04-03T00:28:16;8.37;;;5.90;;
73023;SDS011;61199;47.526;8.538;2023-04-03T00:30:43;9.80;;;6.23;;
73023;SDS011;61199;47.526;8.538;2023-04-03T00:33:12;8.20;;;5.40;;
73023;SDS011;61199;47.526;8.538;2023-04-03T00:35:39;7.77;;;5.53;;
73023;SDS011;61199;47.526;8.538;2023-04-03T00:38:07;7.53;;;4.77;;
73023;SDS011;61199;47.526;8.538;2023-04-03T00:40:34;8.00;;;4.60;;
73023;SDS011;61199;47.526;8.538;2023-04-03T00:43:10;6.87;;;5.20;;
73023;SDS011;61199;47.526;8.538;2023-04-03T00:45:39;5.30;;;4.30;;
73023;SDS011;61199;47.526;8.538;2023-04-03T00:48:10;6.03;;;4.37;;
73023;SDS011;61199;47.526;8.538;2023-04-03T00:50:40;5.63;;;4.13;;
73023;SDS011;61199;47.526;8.538;2023-04-03T00:53:10;7.13;;;5.03;;
73023;SDS011;61199;47.526;8.538;2023-04-03T00:55:40;6.30;;;4.70;;
73023;SDS011;61199;47.526;8.538;2023-04-03T00:58:07;6.30;;;4.60;;
73023;SDS011;61199;47.526;8.538;2023-04-03T01:00:35;6.50;;;4.97;;
73023;SDS011;61199;47.526;8.538;2023-04-03T01:03:06;7.17;;;5.20;;
73023;SDS011;61199;47.526;8.538;2023-04-03T01:05:32;7.23;;;5.10;;
73023;SDS011;61199;47.526;8.538;2023-04-03T01:07:59;8.30;;;5.33;;
73023;SDS011;61199;47.526;8.538;2023-04-03T01:10:26;8.67;;;5.80;;
73023;SDS011;61199;47.526;8.538;2023-04-03T01:12:52;10.47;;;6.23;;
73023;SDS011;61199;47.526;8.538;2023-04-03T01:15:20;10.40;;;6.03;;
73023;SDS011;61199;47.526;8.538;2023-04-03T01:17:58;11.57;;;6.10;;
73023;SDS011;61199;47.526;8.538;2023-04-03T01:25:42;13.23;;;6.50;;
73023;SDS011;61199;47.526;8.538;2023-04-03T01:28:11;9.63;;;6.47;;
73023;SDS011;61199;47.526;8.538;2023-04-03T01:33:46;10.77;;;7.40;;
73023;SDS011;61199;47.526;8.538;2023-04-03T01:36:17;9.30;;;7.00;;
73023;SDS011;61199;47.526;8.538;2023-04-03T01:38:46;10.03;;;7.00;;
73023;SDS011;61199;47.526;8.538;2023-04-03T01:41:14;13.27;;;7.77;;
73023;SDS011;61199;47.526;8.538;2023-04-03T01:43:41;15.00;;;8.00;;
73023;SDS011;61199;47.526;8.538;2023-04-03T01:46:08;9.90;;;7.10;;
73023;SDS011;61199;47.526;8.538;2023-04-03T01:48:35;13.17;;;7.67;;
73023;SDS011;61199;47.526;8.538;2023-04-03T01:51:01;10.47;;;7.33;;
73023;SDS011;61199;47.526;8.538;2023-04-03T01:53:27;10.90;;;7.13;;
73023;SDS011;61199;47.526;8.538;2023-04-03T01:55:54;9.90;;;6.80;;
73023;SDS011;61199;47.526;8.538;2023-04-03T01:58:20;11.93;;;7.97;;
73023;SDS011;61199;47.526;8.538;2023-04-03T02:00:47;10.53;;;7.00;;
73023;SDS011;61199;47.526;8.538;2023-04-03T02:03:14;12.40;;;8.10;;
73023;SDS011;61199;47.526;8.538;2023-04-03T02:05:41;9.77;;;6.63;;
73023;SDS011;61199;47.526;8.538;2023-04-03T02:08:07;11.70;;;7.93;;
73023;SDS011;61199;47.526;8.538;2023-04-03T02:10:34;13.33;;;7.80;;
73023;SDS011;61199;47.526;8.538;2023-04-03T02:13:01;9.97;;;7.10;;
73023;SDS011;61199;47.526;8.538;2023-04-03T02:15:27;10.30;;;7.30;;
73023;SDS011;61199;47.526;8.538;2023-04-03T02:17:54;13.07;;;7.50;;
73023;SDS011;61199;47.526;8.538;2023-04-03T02:20:20;10.40;;;7.27;;
73023;SDS011;61199;47.526;8.538;2023-04-03T02:22:47;10.10;;;6.53;;
73023;SDS011;61199;47.526;8.538;2023-04-03T02:25:14;10.53;;;7.27;;
73023;SDS011;61199;47.526;8.538;2023-04-03T02:27:40;9.53;;;6.40;;
73023;SDS011;61199;47.526;8.538;2023-04-03T02:30:07;10.13;;;7.40;;
73023;SDS011;61199;47.526;8.538;2023-04-03T02:32:35;8.30;;;6.30;;
73023;SDS011;61199;47.526;8.538;2023-04-03T02:35:02;8.30;;;6.47;;
73023;SDS011;61199;47.526;8.538;2023-04-03T02:37:28;8.03;;;5.97;;
73023;SDS011;61199;47.526;8.538;2023-04-03T02:39:55;9.70;;;6.93;;
73023;SDS011;61199;47.526;8.538;2023-04-03T02:42:21;9.20;;;6.67;;
73023;SDS011;61199;47.526;8.538;2023-04-03T02:44:47;9.47;;;6.60;;
73023;SDS011;61199;47.526;8.538;2023-04-03T02:47:14;18.90;;;6.83;;
73023;SDS011;61199;47.526;8.538;2023-04-03T02:49:40;13.40;;;6.27;;
73023;SDS011;61199;47.526;8.538;2023-04-03T02:52:07;7.93;;;6.20;;
73023;SDS011;61199;47.526;8.538;2023-04-03T02:54:36;10.97;;;7.37;;
73023;SDS011;61199;47.526;8.538;2023-04-03T02:57:02;9.23;;;7.10;;
73023;SDS011;61199;47.526;8.538;2023-04-03T02:59:28;10.73;;;6.47;;
73023;SDS011;61199;47.526;8.538;2023-04-03T03:01:55;11.07;;;7.37;;
73023;SDS011;61199;47.526;8.538;2023-04-03T03:04:22;8.50;;;6.97;;
73023;SDS011;61199;47.526;8.538;2023-04-03T03:06:48;9.70;;;6.97;;
73023;SDS011;61199;47.526;8.538;2023-04-03T03:09:15;10.80;;;7.53;;
73023;SDS011;61199;47.526;8.538;2023-04-03T03:11:41;11.57;;;7.20;;
73023;SDS011;61199;47.526;8.538;2023-04-03T03:14:07;12.17;;;7.50;;
73023;SDS011;61199;47.526;8.538;2023-04-03T03:16:34;7.80;;;6.17;;
73023;SDS011;61199;47.526;8.538;2023-04-03T03:19:00;13.00;;;7.67;;
73023;SDS011;61199;47.526;8.538;2023-04-03T03:21:27;11.53;;;7.40;;
73023;SDS011;61199;47.526;8.538;2023-04-03T03:23:53;10.00;;;7.03;;
73023;SDS011;61199;47.526;8.538;2023-04-03T03:26:19;8.70;;;6.30;;
73023;SDS011;61199;47.526;8.538;2023-04-03T03:28:46;10.00;;;6.47;;
73023;SDS011;61199;47.526;8.538;2023-04-03T03:31:12;10.93;;;6.90;;
73023;SDS011;61199;47.526;8.538;2023-04-03T03:33:39;8.20;;;6.60;;
73023;SDS011;61199;47.526;8.538;2023-04-03T03:36:05;10.33;;;7.20;;
73023;SDS011;61199;47.526;8.538;2023-04-03T03:38:32;8.97;;;7.00;;
73023;SDS011;61199;47.526;8.538;2023-04-03T03:40:58;9.87;;;6.80;;
73023;SDS011;61199;47.526;8.538;2023-04-03T03:43:25;9.17;;;7.00;;
73023;SDS011;61199;47.526;8.538;2023-04-03T03:45:51;11.10;;;6.23;;
73023;SDS011;61199;47.526;8.538;2023-04-03T03:48:19;9.30;;;6.40;;
73023;SDS011;61199;47.526;8.538;2023-04-03T03:50:46;10.03;;;6.97;;
73023;SDS011;61199;47.526;8.538;2023-04-03T03:53:13;9.27;;;6.63;;
73023;SDS011;61199;47.526;8.538;2023-04-03T03:55:39;8.77;;;6.47;;
73023;SDS011;61199;47.526;8.538;2023-04-03T03:58:06;8.63;;;6.60;;
73023;SDS011;61199;47.526;8.538;2023-04-03T04:00:32;11.60;;;7.07;;
73023;SDS011;61199;47.526;8.538;2023-04-03T04:02:59;10.10;;;6.63;;
73023;SDS011;61199;47.526;8.538;2023-04-03T04:05:25;12.27;;;6.23;;
73023;SDS011;61199;47.526;8.538;2023-04-03T04:07:52;10.60;;;7.30;;
73023;SDS011;61199;47.526;8.538;2023-04-03T04:10:18;11.43;;;6.23;;
73023;SDS011;61199;47.526;8.538;2023-04-03T04:12:45;10.30;;;7.23;;
73023;SDS011;61199;47.526;8.538;2023-04-03T04:15:11;9.20;;;6.87;;
73023;SDS011;61199;47.526;8.538;2023-04-03T04:17:37;13.23;;;7.30;;
73023;SDS011;61199;47.526;8.538;2023-04-03T04:20:04;11.47;;;7.50;;
73023;SDS011;61199;47.526;8.538;2023-04-03T04:22:31;9.20;;;7.13;;
73023;SDS011;61199;47.526;8.538;2023-04-03T04:24:57;10.90;;;6.50;;
73023;SDS011;61199;47.526;8.538;2023-04-03T04:27:23;9.83;;;7.20;;
73023;SDS011;61199;47.526;8.538;2023-04-03T04:29:50;12.17;;;7.83;;
73023;SDS011;61199;47.526;8.538;2023-04-03T04:32:16;10.20;;;7.40;;
73023;SDS011;61199;47.526;8.538;2023-04-03T04:34:43;10.53;;;7.70;;
73023;SDS011;61199;47.526;8.538;2023-04-03T04:37:09;11.30;;;6.90;;
73023;SDS011;61199;47.526;8.538;2023-04-03T04:39:35;11.83;;;7.80;;
73023;SDS011;61199;47.526;8.538;2023-04-03T04:42:02;15.60;;;8.00;;
73023;SDS011;61199;47.526;8.538;2023-04-03T04:44:29;13.17;;;7.83;;
73023;SDS011;61199;47.526;8.538;2023-04-03T04:46:56;12.00;;;7.20;;
73023;SDS011;61199;47.526;8.538;2023-04-03T04:49:22;9.70;;;6.63;;
73023;SDS011;61199;47.526;8.538;2023-04-03T04:51:49;10.53;;;7.13;;
73023;SDS011;61199;47.526;8.538;2023-04-03T04:54:17;12.10;;;7.50;;
73023;SDS011;61199;47.526;8.538;2023-04-03T04:56:44;11.40;;;6.80;;
73023;SDS011;61199;47.526;8.538;2023-04-03T04:59:10;11.10;;;7.50;;
73023;SDS011;61199;47.526;8.538;2023-04-03T05:01:37;12.70;;;6.90;;
73023;SDS011;61199;47.526;8.538;2023-04-03T05:04:03;10.00;;;7.10;;
73023;SDS011;61199;47.526;8.538;2023-04-03T05:06:30;12.77;;;7.40;;
73023;SDS011;61199;47.526;8.538;2023-04-03T05:08:58;8.80;;;6.10;;
73023;SDS011;61199;47.526;8.538;2023-04-03T05:11:25;10.90;;;7.10;;
73023;SDS011;61199;47.526;8.538;2023-04-03T05:13:52;10.73;;;7.10;;
73023;SDS011;61199;47.526;8.538;2023-04-03T05:16:18;11.10;;;7.07;;
73023;SDS011;61199;47.526;8.538;2023-04-03T05:18:45;9.23;;;6.23;;
73023;SDS011;61199;47.526;8.538;2023-04-03T05:21:11;9.37;;;6.30;;
73023;SDS011;61199;47.526;8.538;2023-04-03T05:23:38;9.10;;;6.87;;
73023;SDS011;61199;47.526;8.538;2023-04-03T05:26:04;8.20;;;5.93;;
73023;SDS011;61199;47.526;8.538;2023-04-03T05:28:31;10.03;;;6.30;;
73023;SDS011;61199;47.526;8.538;2023-04-03T05:30:58;10.43;;;6.30;;
73023;SDS011;61199;47.526;8.538;2023-04-03T05:33:25;7.70;;;5.60;;
73023;SDS011;61199;47.526;8.538;2023-04-03T05:35:52;8.57;;;6.30;;
73023;SDS011;61199;47.526;8.538;2023-04-03T05:38:19;10.87;;;5.80;;
73023;SDS011;61199;47.526;8.538;2023-04-03T05:40:46;9.50;;;5.90;;
73023;SDS011;61199;47.526;8.538;2023-04-03T05:43:13;8.63;;;5.40;;
73023;SDS011;61199;47.526;8.538;2023-04-03T05:45:39;10.90;;;6.40;;
73023;SDS011;61199;47.526;8.538;2023-04-03T05:48:05;8.43;;;5.70;;
73023;SDS011;61199;47.526;8.538;2023-04-03T05:50:32;8.17;;;5.07;;
73023;SDS011;61199;47.526;8.538;2023-04-03T05:52:58;7.80;;;4.90;;
73023;SDS011;61199;47.526;8.538;2023-04-03T05:55:25;13.90;;;5.97;;
73023;SDS011;61199;47.526;8.538;2023-04-03T05:57:51;13.23;;;5.40;;
73023;SDS011;61199;47.526;8.538;2023-04-03T06:00:18;6.50;;;4.80;;
73023;SDS011;61199;47.526;8.538;2023-04-03T06:02:45;7.60;;;4.70;;
73023;SDS011;61199;47.526;8.538;2023-04-03T06:05:11;6.60;;;5.00;;
73023;SDS011;61199;47.526;8.538;2023-04-03T06:07:39;6.20;;;4.30;;
73023;SDS011;61199;47.526;8.538;2023-04-03T06:10:06;6.57;;;4.70;;
73023;SDS011;61199;47.526;8.538;2023-04-03T06:12:34;7.60;;;4.50;;
73023;SDS011;61199;47.526;8.538;2023-04-03T06:15:01;6.03;;;4.60;;
73023;SDS011;61199;47.526;8.538;2023-04-03T06:17:28;9.93;;;4.70;;
73023;SDS011;61199;47.526;8.538;2023-04-03T06:19:55;7.10;;;4.43;;
73023;SDS011;61199;47.526;8.538;2023-04-03T06:22:24;7.33;;;5.20;;
73023;SDS011;61199;47.526;8.538;2023-04-03T06:24:51;6.37;;;4.90;;
73023;SDS011;61199;47.526;8.538;2023-04-03T06:27:18;9.40;;;4.90;;
73023;SDS011;61199;47.526;8.538;2023-04-03T06:29:44;7.77;;;4.60;;
73023;SDS011;61199;47.526;8.538;2023-04-03T06:32:11;12.90;;;6.00;;
73023;SDS011;61199;47.526;8.538;2023-04-03T06:34:37;7.03;;;4.50;;
73023;SDS011;61199;47.526;8.538;2023-04-03T06:37:04;7.87;;;5.30;;
73023;SDS011;61199;47.526;8.538;2023-04-03T06:39:30;7.30;;;4.93;;
73023;SDS011;61199;47.526;8.538;2023-04-03T06:41:57;7.60;;;4.67;;
73023;SDS011;61199;47.526;8.538;2023-04-03T06:44:23;5.87;;;4.00;;
73023;SDS011;61199;47.526;8.538;2023-04-03T06:46:50;6.23;;;4.60;;
73023;SDS011;61199;47.526;8.538;2023-04-03T06:49:17;7.03;;;4.93;;
73023;SDS011;61199;47.526;8.538;2023-04-03T06:51:44;16.20;;;4.63;;
73023;SDS011;61199;47.526;8.538;2023-04-03T06:54:12;5.80;;;4.00;;
73023;SDS011;61199;47.526;8.538;2023-04-03T06:56:38;6.33;;;4.40;;
73023;SDS011;61199;47.526;8.538;2023-04-03T06:59:05;6.97;;;4.17;;
73023;SDS011;61199;47.526;8.538;2023-04-03T07:01:31;5.63;;;4.00;;
73023;SDS011;61199;47.526;8.538;2023-04-03T07:03:58;8.60;;;3.70;;
73023;SDS011;61199;47.526;8.538;2023-04-03T07:06:24;5.67;;;4.20;;
73023;SDS011;61199;47.526;8.538;2023-04-03T07:08:53;5.07;;;3.30;;
73023;SDS011;61199;47.526;8.538;2023-04-03T07:11:20;6.47;;;4.07;;
73023;SDS011;61199;47.526;8.538;2023-04-03T07:13:46;8.07;;;3.80;;
73023;SDS011;61199;47.526;8.538;2023-04-03T07:16:13;10.33;;;3.90;;
73023;SDS011;61199;47.526;8.538;2023-04-03T07:18:39;4.37;;;3.27;;
73023;SDS011;61199;47.526;8.538;2023-04-03T07:21:06;7.00;;;3.47;;
73023;SDS011;61199;47.526;8.538;2023-04-03T07:23:32;5.67;;;3.73;;
73023;SDS011;61199;47.526;8.538;2023-04-03T07:25:59;5.67;;;3.90;;
73023;SDS011;61199;47.526;8.538;2023-04-03T07:28:26;6.93;;;4.17;;
73023;SDS011;61199;47.526;8.538;2023-04-03T07:30:53;4.87;;;3.47;;
73023;SDS011;61199;47.526;8.538;2023-04-03T07:33:26;5.20;;;3.47;;
73023;SDS011;61199;47.526;8.538;2023-04-03T07:35:53;6.47;;;3.83;;
73023;SDS011;61199;47.526;8.538;2023-04-03T07:38:19;4.90;;;3.60;;
73023;SDS011;61199;47.526;8.538;2023-04-03T07:40:46;6.30;;;3.53;;
73023;SDS011;61199;47.526;8.538;2023-04-03T07:43:14;7.50;;;3.90;;
73023;SDS011;61199;47.526;8.538;2023-04-03T07:45:41;6.10;;;3.13;;
73023;SDS011;61199;47.526;8.538;2023-04-03T07:48:09;6.57;;;3.57;;
73023;SDS011;61199;47.526;8.538;2023-04-03T07:50:37;3.90;;;3.30;;
73023;SDS011;61199;47.526;8.538;2023-04-03T07:53:06;6.93;;;3.77;;
73023;SDS011;61199;47.526;8.538;2023-04-03T07:55:34;4.17;;;3.23;;
73023;SDS011;61199;47.526;8.538;2023-04-03T07:58:03;4.90;;;3.67;;
73023;SDS011;61199;47.526;8.538;2023-04-03T08:00:30;5.10;;;3.77;;
73023;SDS011;61199;47.526;8.538;2023-04-03T08:02:57;4.40;;;3.33;;
73023;SDS011;61199;47.526;8.538;2023-04-03T08:05:23;8.17;;;3.23;;
73023;SDS011;61199;47.526;8.538;2023-04-03T08:07:50;4.73;;;3.43;;
73023;SDS011;61199;47.526;8.538;2023-04-03T08:10:16;4.87;;;3.50;;
73023;SDS011;61199;47.526;8.538;2023-04-03T08:12:45;5.77;;;3.50;;
73023;SDS011;61199;47.526;8.538;2023-04-03T08:15:13;8.43;;;3.80;;
73023;SDS011;61199;47.526;8.538;2023-04-03T08:17:39;8.20;;;4.43;;
73023;SDS011;61199;47.526;8.538;2023-04-03T08:20:06;4.30;;;3.20;;
73023;SDS011;61199;47.526;8.538;2023-04-03T08:22:34;5.10;;;2.87;;
73023;SDS011;61199;47.526;8.538;2023-04-03T08:25:00;5.20;;;3.30;;
73023;SDS011;61199;47.526;8.538;2023-04-03T08:27:28;6.57;;;3.10;;
73023;SDS011;61199;47.526;8.538;2023-04-03T08:29:55;4.00;;;3.00;;
73023;SDS011;61199;47.526;8.538;2023-04-03T08:32:22;4.23;;;3.27;;
73023;SDS011;61199;47.526;8.538;2023-04-03T08:34:50;4.30;;;3.40;;
73023;SDS011;61199;47.526;8.538;2023-04-03T08:37:16;5.10;;;3.50;;
73023;SDS011;61199;47.526;8.538;2023-04-03T08:39:43;5.13;;;3.10;;
73023;SDS011;61199;47.526;8.538;2023-04-03T08:45:14;4.97;;;3.20;;
73023;SDS011;61199;47.526;8.538;2023-04-03T08:47:50;4.17;;;3.43;;
73023;SDS011;61199;47.526;8.538;2023-04-03T08:50:26;6.60;;;4.47;;
73023;SDS011;61199;47.526;8.538;2023-04-03T08:52:57;5.13;;;3.67;;
73023;SDS011;61199;47.526;8.538;2023-04-03T08:58:16;4.97;;;3.43;;
73023;SDS011;61199;47.526;8.538;2023-04-03T09:03:25;11.60;;;3.80;;
73023;SDS011;61199;47.526;8.538;2023-04-03T09:06:10;7.43;;;3.87;;
73023;SDS011;61199;47.526;8.538;2023-04-03T09:11:53;7.50;;;3.90;;
73023;SDS011;61199;47.526;8.538;2023-04-03T09:14:55;6.00;;;3.30;;
73023;SDS011;61199;47.526;8.538;2023-04-03T09:20:03;6.07;;;3.70;;
73023;SDS011;61199;47.526;8.538;2023-04-03T09:22:53;5.67;;;3.20;;
73023;SDS011;61199;47.526;8.538;2023-04-03T09:25:25;6.33;;;3.87;;
73023;SDS011;61199;47.526;8.538;2023-04-03T09:27:56;5.93;;;3.20;;
73023;SDS011;61199;47.526;8.538;2023-04-03T09:30:25;4.40;;;3.10;;
73023;SDS011;61199;47.526;8.538;2023-04-03T09:32:53;3.93;;;3.27;;
73023;SDS011;61199;47.526;8.538;2023-04-03T09:35:29;5.20;;;3.40;;
73023;SDS011;61199;47.526;8.538;2023-04-03T09:40:40;4.27;;;3.40;;
73023;SDS011;61199;47.526;8.538;2023-04-03T09:45:52;4.83;;;3.07;;
73023;SDS011;61199;47.526;8.538;2023-04-03T09:48:21;5.87;;;3.63;;
73023;SDS011;61199;47.526;8.538;2023-04-03T09:50:53;9.33;;;3.27;;
73023;SDS011;61199;47.526;8.538;2023-04-03T09:53:38;4.60;;;3.30;;
73023;SDS011;61199;47.526;8.538;2023-04-03T09:58:44;6.60;;;3.20;;
73023;SDS011;61199;47.526;8.538;2023-04-03T10:01:20;6.03;;;3.40;;
73023;SDS011;61199;47.526;8.538;2023-04-03T10:06:32;6.57;;;3.40;;
73023;SDS011;61199;47.526;8.538;2023-04-03T10:14:37;8.10;;;3.57;;
73023;SDS011;61199;47.526;8.538;2023-04-03T10:25:04;3.57;;;3.30;;
73023;SDS011;61199;47.526;8.538;2023-04-03T10:27:53;8.10;;;4.20;;
73023;SDS011;61199;47.526;8.538;2023-04-03T10:33:18;9.63;;;3.77;;
73023;SDS011;61199;47.526;8.538;2023-04-03T10:36:33;6.17;;;3.00;;
73023;SDS011;61199;47.526;8.538;2023-04-03T10:39:01;5.13;;;3.57;;
73023;SDS011;61199;47.526;8.538;2023-04-03T10:41:39;9.00;;;4.90;;
73023;SDS011;61199;47.526;8.538;2023-04-03T10:44:31;11.27;;;3.77;;
73023;SDS011;61199;47.526;8.538;2023-04-03T10:47:40;5.13;;;3.37;;
73023;SDS011;61199;47.526;8.538;2023-04-03T10:50:29;5.47;;;3.33;;
73023;SDS011;61199;47.526;8.538;2023-04-03T10:53:11;4.83;;;3.50;;
73023;SDS011;61199;47.526;8.538;2023-04-03T10:55:55;5.27;;;3.30;;
73023;SDS011;61199;47.526;8.538;2023-04-03T10:58:30;11.53;;;4.07;;
73023;SDS011;61199;47.526;8.538;2023-04-03T11:01:11;4.70;;;3.33;;
73023;SDS011;61199;47.526;8.538;2023-04-03T11:04:00;5.70;;;4.27;;
73023;SDS011;61199;47.526;8.538;2023-04-03T11:06:36;5.30;;;3.70;;
73023;SDS011;61199;47.526;8.538;2023-04-03T11:09:41;4.33;;;3.30;;
73023;SDS011;61199;47.526;8.538;2023-04-03T11:12:14;4.63;;;3.40;;
73023;SDS011;61199;47.526;8.538;2023-04-03T11:14:47;6.63;;;3.83;;
73023;SDS011;61199;47.526;8.538;2023-04-03T11:22:48;5.47;;;3.20;;
73023;SDS011;61199;47.526;8.538;2023-04-03T11:25:21;5.93;;;4.10;;
73023;SDS011;61199;47.526;8.538;2023-04-03T11:27:57;5.50;;;3.53;;
73023;SDS011;61199;47.526;8.538;2023-04-03T11:35:56;4.80;;;3.30;;
73023;SDS011;61199;47.526;8.538;2023-04-03T11:38:36;6.27;;;3.97;;
73023;SDS011;61199;47.526;8.538;2023-04-03T11:41:08;5.50;;;3.60;;
73023;SDS011;61199;47.526;8.538;2023-04-03T11:43:40;5.80;;;3.70;;
73023;SDS011;61199;47.526;8.538;2023-04-03T11:46:08;5.70;;;4.07;;
73023;SDS011;61199;47.526;8.538;2023-04-03T11:51:02;7.60;;;3.90;;
73023;SDS011;61199;47.526;8.538;2023-04-03T11:53:54;4.70;;;3.37;;
73023;SDS011;61199;47.526;8.538;2023-04-03T12:04:22;5.30;;;3.50;;
73023;SDS011;61199;47.526;8.538;2023-04-03T12:06:52;5.30;;;3.10;;
73023;SDS011;61199;47.526;8.538;2023-04-03T12:09:30;6.37;;;3.23;;
73023;SDS011;61199;47.526;8.538;2023-04-03T12:12:00;5.60;;;3.10;;
73023;SDS011;61199;47.526;8.538;2023-04-03T12:14:47;8.53;;;3.77;;
73023;SDS011;61199;47.526;8.538;2023-04-03T12:17:25;6.10;;;3.37;;
73023;SDS011;61199;47.526;8.538;2023-04-03T12:19:53;6.50;;;4.00;;
73023;SDS011;61199;47.526;8.538;2023-04-03T12:22:20;5.20;;;3.40;;
73023;SDS011;61199;47.526;8.538;2023-04-03T12:24:48;4.23;;;3.20;;
73023;SDS011;61199;47.526;8.538;2023-04-03T12:29:56;5.30;;;3.30;;
73023;SDS011;61199;47.526;8.538;2023-04-03T12:35:24;5.50;;;3.30;;
73023;SDS011;61199;47.526;8.538;2023-04-03T12:44:40;5.30;;;2.93;;
73023;SDS011;61199;47.526;8.538;2023-04-03T12:46:58;5.80;;;3.30;;
73023;SDS011;61199;47.526;8.538;2023-04-03T12:49:41;7.37;;;3.73;;
73023;SDS011;61199;47.526;8.538;2023-04-03T12:52:17;3.83;;;3.30;;
73023;SDS011;61199;47.526;8.538;2023-04-03T12:55:07;4.27;;;2.77;;
73023;SDS011;61199;47.526;8.538;2023-04-03T12:57:39;6.17;;;3.30;;
73023;SDS011;61199;47.526;8.538;2023-04-03T13:00:20;7.70;;;3.87;;
73023;SDS011;61199;47.526;8.538;2023-04-03T13:02:49;5.00;;;3.67;;
73023;SDS011;61199;47.526;8.538;2023-04-03T13:05:16;4.23;;;2.90;;
73023;SDS011;61199;47.526;8.538;2023-04-03T13:07:52;4.43;;;3.20;;
73023;SDS011;61199;47.526;8.538;2023-04-03T13:10:23;6.17;;;3.50;;
73023;SDS011;61199;47.526;8.538;2023-04-03T13:12:51;5.30;;;3.53;;
73023;SDS011;61199;47.526;8.538;2023-04-03T13:15:23;5.70;;;3.70;;
73023;SDS011;61199;47.526;8.538;2023-04-03T13:17:52;5.23;;;3.70;;
73023;SDS011;61199;47.526;8.538;2023-04-03T13:20:24;5.60;;;3.83;;
73023;SDS011;61199;47.526;8.538;2023-04-03T13:22:57;6.30;;;4.20;;
73023;SDS011;61199;47.526;8.538;2023-04-03T13:25:29;7.67;;;3.90;;
73023;SDS011;61199;47.526;8.538;2023-04-03T13:27:59;7.50;;;3.67;;
73023;SDS011;61199;47.526;8.538;2023-04-03T13:30:39;5.10;;;3.67;;
73023;SDS011;61199;47.526;8.538;2023-04-03T13:33:19;6.37;;;3.50;;
73023;SDS011;61199;47.526;8.538;2023-04-03T13:35:54;5.40;;;3.80;;
73023;SDS011;61199;47.526;8.538;2023-04-03T13:38:25;7.13;;;3.83;;
73023;SDS011;61199;47.526;8.538;2023-04-03T13:40:55;5.90;;;3.40;;
73023;SDS011;61199;47.526;8.538;2023-04-03T13:43:24;8.80;;;3.43;;
73023;SDS011;61199;47.526;8.538;2023-04-03T13:45:54;3.97;;;3.00;;
73023;SDS011;61199;47.526;8.538;2023-04-03T13:48:46;4.30;;;3.20;;
73023;SDS011;61199;47.526;8.538;2023-04-03T13:53:43;6.20;;;4.23;;
73023;SDS011;61199;47.526;8.538;2023-04-03T13:56:19;4.60;;;2.97;;
73023;SDS011;61199;47.526;8.538;2023-04-03T14:01:41;6.60;;;3.43;;
73023;SDS011;61199;47.526;8.538;2023-04-03T14:05:02;4.03;;;2.97;;
73023;SDS011;61199;47.526;8.538;2023-04-03T14:07:06;7.30;;;3.90;;
73023;SDS011;61199;47.526;8.538;2023-04-03T14:09:33;4.60;;;3.40;;
73023;SDS011;61199;47.526;8.538;2023-04-03T14:12:00;8.00;;;3.10;;
73023;SDS011;61199;47.526;8.538;2023-04-03T14:14:31;5.30;;;3.20;;
73023;SDS011;61199;47.526;8.538;2023-04-03T14:17:00;6.20;;;3.23;;
73023;SDS011;61199;47.526;8.538;2023-04-03T14:19:30;4.67;;;2.93;;
73023;SDS011;61199;47.526;8.538;2023-04-03T14:21:59;5.13;;;2.90;;
73023;SDS011;61199;47.526;8.538;2023-04-03T14:24:29;6.73;;;3.00;;
73023;SDS011;61199;47.526;8.538;2023-04-03T14:26:56;6.50;;;3.10;;
73023;SDS011;61199;47.526;8.538;2023-04-03T14:29:23;3.43;;;2.70;;
73023;SDS011;61199;47.526;8.538;2023-04-03T14:31:49;4.87;;;3.00;;
73023;SDS011;61199;47.526;8.538;2023-04-03T14:34:29;4.73;;;3.03;;
73023;SDS011;61199;47.526;8.538;2023-04-03T14:36:55;4.07;;;2.63;;
73023;SDS011;61199;47.526;8.538;2023-04-03T14:39:21;3.73;;;2.70;;
73023;SDS011;61199;47.526;8.538;2023-04-03T14:41:48;5.07;;;3.30;;
73023;SDS011;61199;47.526;8.538;2023-04-03T14:44:14;5.40;;;2.93;;
73023;SDS011;61199;47.526;8.538;2023-04-03T14:46:41;10.80;;;3.47;;
73023;SDS011;61199;47.526;8.538;2023-04-03T14:49:18;4.00;;;2.80;;
73023;SDS011;61199;47.526;8.538;2023-04-03T14:51:47;7.13;;;3.10;;
73023;SDS011;61199;47.526;8.538;2023-04-03T14:54:15;4.67;;;2.90;;
73023;SDS011;61199;47.526;8.538;2023-04-03T14:56:43;5.43;;;3.40;;
73023;SDS011;61199;47.526;8.538;2023-04-03T14:59:13;8.27;;;3.60;;
73023;SDS011;61199;47.526;8.538;2023-04-03T15:01:41;4.63;;;3.20;;
73023;SDS011;61199;47.526;8.538;2023-04-03T15:04:18;4.97;;;3.50;;
73023;SDS011;61199;47.526;8.538;2023-04-03T15:06:46;5.20;;;3.30;;
73023;SDS011;61199;47.526;8.538;2023-04-03T15:09:24;8.97;;;3.30;;
73023;SDS011;61199;47.526;8.538;2023-04-03T15:11:52;10.00;;;4.43;;
73023;SDS011;61199;47.526;8.538;2023-04-03T15:14:20;8.67;;;3.50;;
73023;SDS011;61199;47.526;8.538;2023-04-03T15:17:02;5.63;;;3.33;;
73023;SDS011;61199;47.526;8.538;2023-04-03T15:19:32;5.20;;;3.40;;
73023;SDS011;61199;47.526;8.538;2023-04-03T15:22:04;5.00;;;3.00;;
73023;SDS011;61199;47.526;8.538;2023-04-03T15:24:30;7.90;;;3.77;;
73023;SDS011;61199;47.526;8.538;2023-04-03T15:26:57;4.90;;;3.50;;
73023;SDS011;61199;47.526;8.538;2023-04-03T15:29:23;4.30;;;3.10;;
73023;SDS011;61199;47.526;8.538;2023-04-03T15:31:50;4.47;;;3.17;;
73023;SDS011;61199;47.526;8.538;2023-04-03T15:34:19;6.33;;;3.60;;
73023;SDS011;61199;47.526;8.538;2023-04-03T15:36:48;10.10;;;4.03;;
73023;SDS011;61199;47.526;8.538;2023-04-03T15:39:14;4.17;;;3.10;;
73023;SDS011;61199;47.526;8.538;2023-04-03T15:41:42;5.00;;;3.37;;
73023;SDS011;61199;47.526;8.538;2023-04-03T15:44:08;5.17;;;3.47;;
73023;SDS011;61199;47.526;8.538;2023-04-03T15:46:35;5.80;;;3.30;;
73023;SDS011;61199;47.526;8.538;2023-04-03T15:49:01;5.67;;;3.30;;
73023;SDS011;61199;47.526;8.538;2023-04-03T15:51:27;8.70;;;3.17;;
73023;SDS011;61199;47.526;8.538;2023-04-03T15:53:54;5.37;;;3.33;;
73023;SDS011;61199;47.526;8.538;2023-04-03T15:56:21;8.40;;;3.93;;
73023;SDS011;61199;47.526;8.538;2023-04-03T15:58:47;5.67;;;3.50;;
73023;SDS011;61199;47.526;8.538;2023-04-03T16:01:13;6.20;;;3.30;;
73023;SDS011;61199;47.526;8.538;2023-04-03T16:03:41;4.70;;;3.43;;
73023;SDS011;61199;47.526;8.538;2023-04-03T16:06:13;5.20;;;3.43;;
73023;SDS011;61199;47.526;8.538;2023-04-03T16:08:41;5.93;;;3.57;;
73023;SDS011;61199;47.526;8.538;2023-04-03T16:11:08;6.40;;;3.60;;
73023;SDS011;61199;47.526;8.538;2023-04-03T16:13:35;5.00;;;3.00;;
73023;SDS011;61199;47.526;8.538;2023-04-03T16:16:01;8.30;;;3.50;;
73023;SDS011;61199;47.526;8.538;2023-04-03T16:18:29;10.87;;;3.40;;
73023;SDS011;61199;47.526;8.538;2023-04-03T16:20:55;5.23;;;3.20;;
73023;SDS011;61199;47.526;8.538;2023-04-03T16:23:22;4.83;;;3.20;;
73023;SDS011;61199;47.526;8.538;2023-04-03T16:25:49;5.50;;;3.37;;
73023;SDS011;61199;47.526;8.538;2023-04-03T16:28:16;5.20;;;3.23;;